sensor_id;sensor_type;location;lat;lon;timestamp;temperature;humidity
18894;DHT22;9579;49.488;8.226;2023-02-11T00:19:03;4.80;99.30
18894;DHT22;9579;49.488;8.226;2023-02-11T00:21:52;4.80;99.40
18894;DHT22;9579;49.488;8.226;2023-02-11T00:24:39;4.90;99.40
18894;DHT22;9579;49.488;8.226;2023-02-11T00:27:26;4.90;99.40
18894;DHT22;9579;49.488;8.226;2023-02-11T00:30:13;5.00;99.30
18894;DHT22;9579;49.488;8.226;2023-02-11T00:33:01;5.10;99.10
18894;DHT22;9579;49.488;8.226;2023-02-11T00:35:49;5.20;98.70
18894;DHT22;9579;49.488;8.226;2023-02-11T00:38:36;5.20;98.50
18894;DHT22;9579;49.488;8.226;2023-02-11T00:41:24;5.20;98.70
18894;DHT22;9579;49.488;8.226;2023-02-11T00:44:11;5.10;99.00
18894;DHT22;9579;49.488;8.226;2023-02-11T00:46:58;5.20;99.30
18894;DHT22;9579;49.488;8.226;2023-02-11T00:49:45;5.20;99.30
18894;DHT22;9579;49.488;8.226;2023-02-11T00:52:33;5.30;99.20
18894;DHT22;9579;49.488;8.226;2023-02-11T00:55:21;5.30;99.50
18894;DHT22;9579;49.488;8.226;2023-02-11T00:58:08;5.30;99.50
18894;DHT22;9579;49.488;8.226;2023-02-11T07:00:17;5.40;99.90
18894;DHT22;9579;49.488;8.226;2023-02-11T07:03:04;5.50;99.90
18894;DHT22;9579;49.488;8.226;2023-02-11T07:05:51;5.40;99.80
18894;DHT22;9579;49.488;8.226;2023-02-11T07:08:39;5.40;99.90
18894;DHT22;9579;49.488;8.226;2023-02-11T07:11:28;5.40;99.90
18894;DHT22;9579;49.488;8.226;2023-02-11T07:14:16;5.40;99.90
18894;DHT22;9579;49.488;8.226;2023-02-11T07:17:04;5.50;99.90
18894;DHT22;9579;49.488;8.226;2023-02-11T07:19:51;5.50;99.90
18894;DHT22;9579;49.488;8.226;2023-02-11T07:22:40;5.50;99.60
18894;DHT22;9579;49.488;8.226;2023-02-11T07:25:27;5.50;99.70
18894;DHT22;9579;49.488;8.226;2023-02-11T07:28:15;5.50;99.80
18894;DHT22;9579;49.488;8.226;2023-02-11T07:31:05;5.70;99.40
18894;DHT22;9579;49.488;8.226;2023-02-11T07:33:55;5.60;99.50
18894;DHT22;9579;49.488;8.226;2023-02-11T07:36:42;5.60;99.40
18894;DHT22;9579;49.488;8.226;2023-02-11T07:39:29;5.80;99.50
18894;DHT22;9579;49.488;8.226;2023-02-11T07:42:18;5.90;99.30
18894;DHT22;9579;49.488;8.226;2023-02-11T07:45:06;6.10;99.10
18894;DHT22;9579;49.488;8.226;2023-02-11T07:47:53;6.20;98.90
18894;DHT22;9579;49.488;8.226;2023-02-11T07:50:42;6.40;98.70
18894;DHT22;9579;49.488;8.226;2023-02-11T07:53:29;6.40;98.50
18894;DHT22;9579;49.488;8.226;2023-02-11T07:56:17;6.50;98.50
18894;DHT22;9579;49.488;8.226;2023-02-11T07:59:04;6.70;98.30
18894;DHT22;9579;49.488;8.226;2023-02-11T08:01:52;6.90;97.90
18894;DHT22;9579;49.488;8.226;2023-02-11T08:04:39;7.00;97.90
18894;DHT22;9579;49.488;8.226;2023-02-11T08:07:27;7.20;98.10
18894;DHT22;9579;49.488;8.226;2023-02-11T08:10:15;7.50;98.00
18894;DHT22;9579;49.488;8.226;2023-02-11T08:13:02;7.80;97.50
18894;DHT22;9579;49.488;8.226;2023-02-11T08:15:49;8.10;97.20
18894;DHT22;9579;49.488;8.226;2023-02-11T08:18:36;8.40;96.60
18894;DHT22;9579;49.488;8.226;2023-02-11T08:21:23;8.60;96.20
18894;DHT22;9579;49.488;8.226;2023-02-11T08:24:12;8.90;95.70
18894;DHT22;9579;49.488;8.226;2023-02-11T08:26:59;9.00;95.60
18894;DHT22;9579;49.488;8.226;2023-02-11T08:29:46;9.20;95.50
18894;DHT22;9579;49.488;8.226;2023-02-11T08:32:33;9.40;95.10
18894;DHT22;9579;49.488;8.226;2023-02-11T08:35:20;9.40;95.10
18894;DHT22;9579;49.488;8.226;2023-02-11T08:38:07;9.40;94.90
18894;DHT22;9579;49.488;8.226;2023-02-11T08:40:58;9.50;94.90
18894;DHT22;9579;49.488;8.226;2023-02-11T08:43:45;9.40;94.80
18894;DHT22;9579;49.488;8.226;2023-02-11T08:46:34;9.20;95.00
18894;DHT22;9579;49.488;8.226;2023-02-11T08:49:21;9.20;95.10
18894;DHT22;9579;49.488;8.226;2023-02-11T08:52:08;9.10;95.20
18894;DHT22;9579;49.488;8.226;2023-02-11T08:54:55;9.20;95.40
18894;DHT22;9579;49.488;8.226;2023-02-11T08:57:43;9.30;95.50
18894;DHT22;9579;49.488;8.226;2023-02-11T09:00:30;9.50;95.70
18894;DHT22;9579;49.488;8.226;2023-02-11T09:03:18;9.80;95.40
18894;DHT22;9579;49.488;8.226;2023-02-11T09:06:06;9.90;95.10
18894;DHT22;9579;49.488;8.226;2023-02-11T09:08:55;10.20;94.40
18894;DHT22;9579;49.488;8.226;2023-02-11T09:11:43;10.40;94.50
18894;DHT22;9579;49.488;8.226;2023-02-11T09:14:31;10.60;94.60
18894;DHT22;9579;49.488;8.226;2023-02-11T09:17:19;10.90;94.20
18894;DHT22;9579;49.488;8.226;2023-02-11T09:20:06;11.30;94.00
18894;DHT22;9579;49.488;8.226;2023-02-11T09:22:55;11.60;93.60
18894;DHT22;9579;49.488;8.226;2023-02-11T09:25:42;11.80;93.40
18894;DHT22;9579;49.488;8.226;2023-02-11T09:28:29;11.80;92.70
18894;DHT22;9579;49.488;8.226;2023-02-11T09:31:20;11.70;93.10
18894;DHT22;9579;49.488;8.226;2023-02-11T09:34:08;11.70;92.80
18894;DHT22;9579;49.488;8.226;2023-02-11T09:36:55;11.70;92.80
18894;DHT22;9579;49.488;8.226;2023-02-11T09:39:42;11.80;92.90
18894;DHT22;9579;49.488;8.226;2023-02-11T09:42:42;12.00;93.00
18894;DHT22;9579;49.488;8.226;2023-02-11T09:45:30;12.20;92.80
18894;DHT22;9579;49.488;8.226;2023-02-11T09:48:20;12.30;92.50
18894;DHT22;9579;49.488;8.226;2023-02-11T09:51:15;12.30;92.50
18894;DHT22;9579;49.488;8.226;2023-02-11T09:54:10;12.40;92.50
18894;DHT22;9579;49.488;8.226;2023-02-11T09:56:59;12.40;92.40
18894;DHT22;9579;49.488;8.226;2023-02-11T09:59:46;12.40;92.40
18894;DHT22;9579;49.488;8.226;2023-02-11T10:02:44;12.30;92.30
18894;DHT22;9579;49.488;8.226;2023-02-11T10:05:48;12.30;92.40
18894;DHT22;9579;49.488;8.226;2023-02-11T10:08:41;12.30;92.60
18894;DHT22;9579;49.488;8.226;2023-02-11T10:11:38;12.20;92.60
18894;DHT22;9579;49.488;8.226;2023-02-11T10:14:42;12.00;92.40
18894;DHT22;9579;49.488;8.226;2023-02-11T10:17:38;11.80;92.40
18894;DHT22;9579;49.488;8.226;2023-02-11T10:20:32;11.80;92.80
18894;DHT22;9579;49.488;8.226;2023-02-11T10:23:24;11.90;92.80
18894;DHT22;9579;49.488;8.226;2023-02-11T10:26:13;12.20;92.70
18894;DHT22;9579;49.488;8.226;2023-02-11T10:29:09;12.50;92.20
18894;DHT22;9579;49.488;8.226;2023-02-11T10:31:58;12.80;92.10
18894;DHT22;9579;49.488;8.226;2023-02-11T10:34:47;12.90;92.00
18894;DHT22;9579;49.488;8.226;2023-02-11T10:37:34;13.10;91.80
18894;DHT22;9579;49.488;8.226;2023-02-11T10:40:25;13.20;91.50
18894;DHT22;9579;49.488;8.226;2023-02-11T10:43:14;13.20;91.50
18894;DHT22;9579;49.488;8.226;2023-02-11T10:46:02;13.20;91.40
18894;DHT22;9579;49.488;8.226;2023-02-11T10:48:51;13.20;91.40
18894;DHT22;9579;49.488;8.226;2023-02-11T10:51:38;13.10;91.50
18894;DHT22;9579;49.488;8.226;2023-02-11T10:54:25;13.10;91.70
18894;DHT22;9579;49.488;8.226;2023-02-11T10:57:17;13.10;91.60
18894;DHT22;9579;49.488;8.226;2023-02-11T11:00:19;13.30;91.90
18894;DHT22;9579;49.488;8.226;2023-02-11T11:03:16;13.40;91.70
18894;DHT22;9579;49.488;8.226;2023-02-11T11:06:06;13.60;91.50
18894;DHT22;9579;49.488;8.226;2023-02-11T11:08:53;13.70;91.50
18894;DHT22;9579;49.488;8.226;2023-02-11T11:11:50;13.90;91.20
18894;DHT22;9579;49.488;8.226;2023-02-11T11:14:39;14.10;91.20
18894;DHT22;9579;49.488;8.226;2023-02-11T11:17:27;14.10;91.30
18894;DHT22;9579;49.488;8.226;2023-02-11T11:20:23;14.20;90.50
18894;DHT22;9579;49.488;8.226;2023-02-11T11:23:16;14.20;90.40
18894;DHT22;9579;49.488;8.226;2023-02-11T11:26:05;14.10;90.80
18894;DHT22;9579;49.488;8.226;2023-02-11T11:28:56;14.10;90.90
18894;DHT22;9579;49.488;8.226;2023-02-11T11:31:49;14.00;90.50
18894;DHT22;9579;49.488;8.226;2023-02-11T11:34:39;14.00;90.60
18894;DHT22;9579;49.488;8.226;2023-02-11T11:37:28;14.00;90.70
18894;DHT22;9579;49.488;8.226;2023-02-11T11:40:21;14.10;90.60
18894;DHT22;9579;49.488;8.226;2023-02-11T11:43:16;14.10;90.40
18894;DHT22;9579;49.488;8.226;2023-02-11T11:46:06;13.90;90.40
18894;DHT22;9579;49.488;8.226;2023-02-11T11:49:11;13.90;90.90
18894;DHT22;9579;49.488;8.226;2023-02-11T11:52:09;14.10;90.60
18894;DHT22;9579;49.488;8.226;2023-02-11T11:55:01;14.10;90.10
18894;DHT22;9579;49.488;8.226;2023-02-11T11:57:48;13.90;90.40
18894;DHT22;9579;49.488;8.226;2023-02-11T12:00:41;13.30;91.10
18894;DHT22;9579;49.488;8.226;2023-02-11T12:04:11;13.10;91.30
18894;DHT22;9579;49.488;8.226;2023-02-11T12:07:10;13.20;91.80
18894;DHT22;9579;49.488;8.226;2023-02-11T12:10:26;13.30;91.50
18894;DHT22;9579;49.488;8.226;2023-02-11T12:13:23;13.50;91.30
18894;DHT22;9579;49.488;8.226;2023-02-11T12:16:20;13.50;91.30
18894;DHT22;9579;49.488;8.226;2023-02-11T12:22:35;13.60;91.20
18894;DHT22;9579;49.488;8.226;2023-02-11T12:25:27;13.60;91.00
18894;DHT22;9579;49.488;8.226;2023-02-11T12:28:24;13.50;90.90
18894;DHT22;9579;49.488;8.226;2023-02-11T12:31:24;13.50;91.40
18894;DHT22;9579;49.488;8.226;2023-02-11T12:34:29;13.60;91.50
18894;DHT22;9579;49.488;8.226;2023-02-11T12:37:32;13.60;91.00
18894;DHT22;9579;49.488;8.226;2023-02-11T12:40:28;13.50;91.50
18894;DHT22;9579;49.488;8.226;2023-02-11T12:43:22;13.50;91.90
18894;DHT22;9579;49.488;8.226;2023-02-11T12:46:35;13.40;91.90
18894;DHT22;9579;49.488;8.226;2023-02-11T12:49:48;13.40;91.90
18894;DHT22;9579;49.488;8.226;2023-02-11T12:52:49;13.40;92.00
18894;DHT22;9579;49.488;8.226;2023-02-11T12:55:41;13.20;92.00
18894;DHT22;9579;49.488;8.226;2023-02-11T12:58:31;12.90;92.20
18894;DHT22;9579;49.488;8.226;2023-02-11T13:01:22;12.60;93.00
18894;DHT22;9579;49.488;8.226;2023-02-11T13:04:18;12.50;93.00
18894;DHT22;9579;49.488;8.226;2023-02-11T13:07:13;12.30;93.70
18894;DHT22;9579;49.488;8.226;2023-02-11T13:10:04;12.20;94.20
18894;DHT22;9579;49.488;8.226;2023-02-11T13:12:57;12.20;94.50
18894;DHT22;9579;49.488;8.226;2023-02-11T13:29:47;12.10;94.90
18894;DHT22;9579;49.488;8.226;2023-02-11T13:33:05;11.90;94.80
18894;DHT22;9579;49.488;8.226;2023-02-11T13:36:19;11.90;94.90
18894;DHT22;9579;49.488;8.226;2023-02-11T13:39:18;12.70;95.70
18894;DHT22;9579;49.488;8.226;2023-02-11T13:42:14;11.80;95.10
18894;DHT22;9579;49.488;8.226;2023-02-11T13:45:16;12.40;95.80
18894;DHT22;9579;49.488;8.226;2023-02-11T13:48:05;11.40;95.60
18894;DHT22;9579;49.488;8.226;2023-02-11T13:50:56;11.20;96.00
18894;DHT22;9579;49.488;8.226;2023-02-11T13:53:46;11.00;96.30
18894;DHT22;9579;49.488;8.226;2023-02-11T13:56:36;10.90;96.70
18894;DHT22;9579;49.488;8.226;2023-02-11T13:59:43;10.90;97.10
18894;DHT22;9579;49.488;8.226;2023-02-11T14:02:34;10.80;97.00
18894;DHT22;9579;49.488;8.226;2023-02-11T14:06:15;10.70;97.10
18894;DHT22;9579;49.488;8.226;2023-02-11T14:09:35;10.70;97.30
18894;DHT22;9579;49.488;8.226;2023-02-11T14:12:33;10.60;97.20
18894;DHT22;9579;49.488;8.226;2023-02-11T14:15:25;10.60;97.40
18894;DHT22;9579;49.488;8.226;2023-02-11T14:18:40;10.50;97.50
18894;DHT22;9579;49.488;8.226;2023-02-11T14:21:43;10.40;97.70
18894;DHT22;9579;49.488;8.226;2023-02-11T14:24:50;10.30;97.90
18894;DHT22;9579;49.488;8.226;2023-02-11T14:27:41;10.40;97.80
18894;DHT22;9579;49.488;8.226;2023-02-11T14:30:54;10.30;97.80
18894;DHT22;9579;49.488;8.226;2023-02-11T14:33:57;10.30;97.80
18894;DHT22;9579;49.488;8.226;2023-02-11T14:36:57;10.30;97.90
18894;DHT22;9579;49.488;8.226;2023-02-11T14:39:56;10.30;98.00
18894;DHT22;9579;49.488;8.226;2023-02-11T14:42:44;10.40;98.00
18894;DHT22;9579;49.488;8.226;2023-02-11T14:45:34;10.40;98.00
18894;DHT22;9579;49.488;8.226;2023-02-11T14:48:27;10.40;98.00
18894;DHT22;9579;49.488;8.226;2023-02-11T14:51:19;10.50;98.10
18894;DHT22;9579;49.488;8.226;2023-02-11T14:54:11;10.50;98.10
18894;DHT22;9579;49.488;8.226;2023-02-11T14:57:08;10.40;97.90
18894;DHT22;9579;49.488;8.226;2023-02-11T14:59:57;10.50;97.70
18894;DHT22;9579;49.488;8.226;2023-02-11T15:02:47;10.50;98.00
18894;DHT22;9579;49.488;8.226;2023-02-11T15:05:35;10.40;98.10
18894;DHT22;9579;49.488;8.226;2023-02-11T15:08:23;10.30;98.20
18894;DHT22;9579;49.488;8.226;2023-02-11T15:11:12;10.30;98.40
18894;DHT22;9579;49.488;8.226;2023-02-11T15:14:07;10.20;98.40
18894;DHT22;9579;49.488;8.226;2023-02-11T15:16:56;10.20;98.60
18894;DHT22;9579;49.488;8.226;2023-02-11T15:19:46;10.30;98.50
18894;DHT22;9579;49.488;8.226;2023-02-11T15:22:34;10.20;98.50
18894;DHT22;9579;49.488;8.226;2023-02-11T15:25:23;9.90;99.20
18894;DHT22;9579;49.488;8.226;2023-02-11T15:28:21;9.80;99.40
18894;DHT22;9579;49.488;8.226;2023-02-11T15:31:14;9.70;99.40
18894;DHT22;9579;49.488;8.226;2023-02-11T15:34:06;9.80;99.50
18894;DHT22;9579;49.488;8.226;2023-02-11T15:36:53;9.80;99.60
18894;DHT22;9579;49.488;8.226;2023-02-11T15:39:42;9.70;99.90
18894;DHT22;9579;49.488;8.226;2023-02-11T15:42:31;9.70;99.90
18894;DHT22;9579;49.488;8.226;2023-02-11T15:45:39;9.60;99.90
18894;DHT22;9579;49.488;8.226;2023-02-11T15:48:35;9.60;99.90
18894;DHT22;9579;49.488;8.226;2023-02-11T15:51:27;9.60;99.90
18894;DHT22;9579;49.488;8.226;2023-02-11T15:54:18;9.60;99.90
18894;DHT22;9579;49.488;8.226;2023-02-11T15:57:08;9.70;99.90
18894;DHT22;9579;49.488;8.226;2023-02-11T15:59:57;9.80;99.90
18894;DHT22;9579;49.488;8.226;2023-02-11T16:02:49;9.80;99.90
18894;DHT22;9579;49.488;8.226;2023-02-11T16:05:37;9.80;99.90
18894;DHT22;9579;49.488;8.226;2023-02-11T16:08:27;9.80;99.90
18894;DHT22;9579;49.488;8.226;2023-02-11T16:11:23;9.90;99.90
18894;DHT22;9579;49.488;8.226;2023-02-11T16:14:22;10.00;99.80
18894;DHT22;9579;49.488;8.226;2023-02-11T16:17:20;10.00;99.30
18894;DHT22;9579;49.488;8.226;2023-02-11T16:20:17;10.00;99.60
18894;DHT22;9579;49.488;8.226;2023-02-11T16:23:05;10.10;99.60
18894;DHT22;9579;49.488;8.226;2023-02-11T16:25:57;10.10;99.50
18894;DHT22;9579;49.488;8.226;2023-02-11T16:28:45;10.00;99.40
18894;DHT22;9579;49.488;8.226;2023-02-11T16:31:37;10.00;99.50
18894;DHT22;9579;49.488;8.226;2023-02-11T16:34:26;10.10;99.60
18894;DHT22;9579;49.488;8.226;2023-02-11T16:37:14;10.10;99.50
18894;DHT22;9579;49.488;8.226;2023-02-11T16:40:01;10.10;99.50
18894;DHT22;9579;49.488;8.226;2023-02-11T16:42:48;10.20;99.50
18894;DHT22;9579;49.488;8.226;2023-02-11T16:45:36;10.10;99.50
18894;DHT22;9579;49.488;8.226;2023-02-11T16:48:24;10.10;99.50
18894;DHT22;9579;49.488;8.226;2023-02-11T16:51:12;10.20;99.60
18894;DHT22;9579;49.488;8.226;2023-02-11T16:53:59;10.20;99.50
18894;DHT22;9579;49.488;8.226;2023-02-11T16:56:47;10.20;99.50
18894;DHT22;9579;49.488;8.226;2023-02-11T16:59:34;10.20;99.50
18894;DHT22;9579;49.488;8.226;2023-02-11T17:02:23;10.20;99.50
18894;DHT22;9579;49.488;8.226;2023-02-11T17:05:16;10.10;99.50
18894;DHT22;9579;49.488;8.226;2023-02-11T17:08:05;10.10;99.70
18894;DHT22;9579;49.488;8.226;2023-02-11T17:10:52;10.10;99.60
18894;DHT22;9579;49.488;8.226;2023-02-11T17:13:39;10.20;99.70
18894;DHT22;9579;49.488;8.226;2023-02-11T17:16:26;10.20;99.60
18894;DHT22;9579;49.488;8.226;2023-02-11T17:19:16;10.10;99.60
18894;DHT22;9579;49.488;8.226;2023-02-11T17:22:04;10.10;99.80
18894;DHT22;9579;49.488;8.226;2023-02-11T17:24:52;10.10;99.80
18894;DHT22;9579;49.488;8.226;2023-02-11T17:27:40;10.10;99.80
18894;DHT22;9579;49.488;8.226;2023-02-11T17:30:27;10.10;99.90
18894;DHT22;9579;49.488;8.226;2023-02-11T17:33:14;10.00;99.90
18894;DHT22;9579;49.488;8.226;2023-02-11T17:36:04;10.00;99.90
18894;DHT22;9579;49.488;8.226;2023-02-11T17:38:53;10.00;99.90
18894;DHT22;9579;49.488;8.226;2023-02-11T17:41:42;10.00;99.90
18894;DHT22;9579;49.488;8.226;2023-02-11T17:44:29;9.90;99.90
18894;DHT22;9579;49.488;8.226;2023-02-11T17:47:16;9.90;99.90
18894;DHT22;9579;49.488;8.226;2023-02-11T17:50:03;9.90;99.90
18894;DHT22;9579;49.488;8.226;2023-02-11T17:52:50;9.90;99.90
18894;DHT22;9579;49.488;8.226;2023-02-11T17:55:37;9.80;99.90
18894;DHT22;9579;49.488;8.226;2023-02-11T17:58:26;9.80;99.90
18894;DHT22;9579;49.488;8.226;2023-02-11T18:01:13;9.80;99.90
18894;DHT22;9579;49.488;8.226;2023-02-11T18:04:00;9.80;99.90
18894;DHT22;9579;49.488;8.226;2023-02-11T18:06:47;9.80;99.90
18894;DHT22;9579;49.488;8.226;2023-02-11T18:09:38;9.80;99.90
18894;DHT22;9579;49.488;8.226;2023-02-11T18:12:26;9.90;99.90
18894;DHT22;9579;49.488;8.226;2023-02-11T18:15:14;9.90;99.90
18894;DHT22;9579;49.488;8.226;2023-02-11T18:18:01;9.90;99.90
18894;DHT22;9579;49.488;8.226;2023-02-11T18:20:55;9.80;99.90
18894;DHT22;9579;49.488;8.226;2023-02-11T18:23:42;9.90;99.90
18894;DHT22;9579;49.488;8.226;2023-02-11T18:26:30;9.80;99.90
18894;DHT22;9579;49.488;8.226;2023-02-11T18:29:17;9.80;99.90
18894;DHT22;9579;49.488;8.226;2023-02-11T18:32:05;9.90;99.90
18894;DHT22;9579;49.488;8.226;2023-02-11T18:34:52;9.90;99.90
18894;DHT22;9579;49.488;8.226;2023-02-11T18:37:40;9.90;99.90
18894;DHT22;9579;49.488;8.226;2023-02-11T18:40:27;9.80;99.90
18894;DHT22;9579;49.488;8.226;2023-02-11T18:43:14;9.80;99.90
18894;DHT22;9579;49.488;8.226;2023-02-11T18:46:01;9.80;99.90
18894;DHT22;9579;49.488;8.226;2023-02-11T18:48:53;9.70;99.90
18894;DHT22;9579;49.488;8.226;2023-02-11T18:51:41;9.70;99.90
18894;DHT22;9579;49.488;8.226;2023-02-11T18:54:28;9.80;99.90
18894;DHT22;9579;49.488;8.226;2023-02-11T18:57:15;9.70;99.90
18894;DHT22;9579;49.488;8.226;2023-02-11T19:00:02;9.70;99.90
18894;DHT22;9579;49.488;8.226;2023-02-11T19:02:50;9.70;99.90
18894;DHT22;9579;49.488;8.226;2023-02-11T19:05:43;9.60;99.90
18894;DHT22;9579;49.488;8.226;2023-02-11T19:08:30;9.70;99.90
18894;DHT22;9579;49.488;8.226;2023-02-11T19:11:18;9.70;99.90
18894;DHT22;9579;49.488;8.226;2023-02-11T19:14:05;9.60;99.90
18894;DHT22;9579;49.488;8.226;2023-02-11T19:16:56;9.60;99.90
18894;DHT22;9579;49.488;8.226;2023-02-11T19:19:44;9.50;99.90
18894;DHT22;9579;49.488;8.226;2023-02-11T19:22:32;9.50;99.90
18894;DHT22;9579;49.488;8.226;2023-02-11T19:25:19;9.50;99.90
18894;DHT22;9579;49.488;8.226;2023-02-11T19:28:06;9.50;99.90
18894;DHT22;9579;49.488;8.226;2023-02-11T19:30:53;9.50;99.90
18894;DHT22;9579;49.488;8.226;2023-02-11T19:33:40;9.50;99.90
18894;DHT22;9579;49.488;8.226;2023-02-11T19:36:28;9.40;99.90
18894;DHT22;9579;49.488;8.226;2023-02-11T19:39:16;9.40;99.90
18894;DHT22;9579;49.488;8.226;2023-02-11T19:42:04;9.50;99.90
18894;DHT22;9579;49.488;8.226;2023-02-11T19:50:02;9.20;99.90
18894;DHT22;9579;49.488;8.226;2023-02-11T19:52:49;10.70;99.90
18894;DHT22;9579;49.488;8.226;2023-02-11T19:55:38;9.60;99.90
18894;DHT22;9579;49.488;8.226;2023-02-11T20:01:05;9.30;99.90
18894;DHT22;9579;49.488;8.226;2023-02-11T20:06:29;9.30;99.90
18894;DHT22;9579;49.488;8.226;2023-02-11T20:09:17;9.20;99.90
18894;DHT22;9579;49.488;8.226;2023-02-11T20:14:46;9.20;99.90
18894;DHT22;9579;49.488;8.226;2023-02-11T20:17:33;9.30;99.90
18894;DHT22;9579;49.488;8.226;2023-02-11T20:20:23;10.20;99.90
18894;DHT22;9579;49.488;8.226;2023-02-11T20:25:48;9.40;99.90
18894;DHT22;9579;49.488;8.226;2023-02-11T20:28:39;9.20;99.90
18894;DHT22;9579;49.488;8.226;2023-02-11T20:31:29;10.10;99.90
18894;DHT22;9579;49.488;8.226;2023-02-11T20:36:54;9.40;99.90
18894;DHT22;9579;49.488;8.226;2023-02-11T20:39:43;9.20;99.90
18894;DHT22;9579;49.488;8.226;2023-02-11T20:42:31;9.30;99.90
18894;DHT22;9579;49.488;8.226;2023-02-11T20:45:19;9.30;99.90
18894;DHT22;9579;49.488;8.226;2023-02-11T20:48:09;9.70;99.90
18894;DHT22;9579;49.488;8.226;2023-02-11T20:51:02;9.40;99.90
18894;DHT22;9579;49.488;8.226;2023-02-11T20:53:52;10.10;99.90
18894;DHT22;9579;49.488;8.226;2023-02-11T20:56:41;10.20;99.90
18894;DHT22;9579;49.488;8.226;2023-02-11T20:59:30;8.90;99.90
18894;DHT22;9579;49.488;8.226;2023-02-11T21:02:19;9.40;99.90
18894;DHT22;9579;49.488;8.226;2023-02-11T21:08:01;9.50;99.90
18894;DHT22;9579;49.488;8.226;2023-02-11T21:10:49;8.50;99.90
18894;DHT22;9579;49.488;8.226;2023-02-11T21:13:38;10.70;99.90
18894;DHT22;9579;49.488;8.226;2023-02-11T21:16:26;10.10;99.90
18894;DHT22;9579;49.488;8.226;2023-02-11T21:19:15;9.50;99.90
18894;DHT22;9579;49.488;8.226;2023-02-11T21:22:03;9.40;99.90
18894;DHT22;9579;49.488;8.226;2023-02-11T21:24:53;9.00;99.90
18894;DHT22;9579;49.488;8.226;2023-02-11T21:27:40;10.10;99.90
18894;DHT22;9579;49.488;8.226;2023-02-11T21:30:29;9.50;99.90
18894;DHT22;9579;49.488;8.226;2023-02-11T21:33:17;11.20;99.90
18894;DHT22;9579;49.488;8.226;2023-02-11T21:41:15;9.50;99.90
18894;DHT22;9579;49.488;8.226;2023-02-11T21:44:02;9.50;99.90
18894;DHT22;9579;49.488;8.226;2023-02-11T21:46:50;9.40;99.90
18894;DHT22;9579;49.488;8.226;2023-02-11T21:49:37;10.20;99.90
18894;DHT22;9579;49.488;8.226;2023-02-11T21:52:24;10.30;99.90
18894;DHT22;9579;49.488;8.226;2023-02-11T21:55:11;10.60;99.90
18894;DHT22;9579;49.488;8.226;2023-02-11T21:58:00;10.30;99.90
18894;DHT22;9579;49.488;8.226;2023-02-11T22:00:47;9.30;99.90
18894;DHT22;9579;49.488;8.226;2023-02-11T22:03:34;9.20;99.90
18894;DHT22;9579;49.488;8.226;2023-02-11T22:06:23;9.20;99.90
18894;DHT22;9579;49.488;8.226;2023-02-11T22:09:11;9.50;99.90
18894;DHT22;9579;49.488;8.226;2023-02-11T22:11:59;9.20;99.90
18894;DHT22;9579;49.488;8.226;2023-02-11T22:14:47;9.20;99.90
18894;DHT22;9579;49.488;8.226;2023-02-11T22:17:34;9.40;99.90
18894;DHT22;9579;49.488;8.226;2023-02-11T22:20:21;9.20;99.90
18894;DHT22;9579;49.488;8.226;2023-02-11T22:23:09;9.20;99.90
18894;DHT22;9579;49.488;8.226;2023-02-11T22:25:57;9.20;99.90
18894;DHT22;9579;49.488;8.226;2023-02-11T22:28:44;9.30;99.90
18894;DHT22;9579;49.488;8.226;2023-02-11T22:31:34;9.20;99.90
18894;DHT22;9579;49.488;8.226;2023-02-11T22:34:21;9.90;99.90
18894;DHT22;9579;49.488;8.226;2023-02-11T22:37:08;10.50;99.90
18894;DHT22;9579;49.488;8.226;2023-02-11T22:39:55;9.40;99.90
18894;DHT22;9579;49.488;8.226;2023-02-11T22:42:42;9.00;99.90
18894;DHT22;9579;49.488;8.226;2023-02-11T22:45:32;8.90;99.90
18894;DHT22;9579;49.488;8.226;2023-02-11T22:48:20;8.30;99.90
18894;DHT22;9579;49.488;8.226;2023-02-11T22:51:10;8.90;99.90
18894;DHT22;9579;49.488;8.226;2023-02-11T22:53:59;9.80;99.90
18894;DHT22;9579;49.488;8.226;2023-02-11T22:56:50;9.90;99.90
18894;DHT22;9579;49.488;8.226;2023-02-11T22:59:37;9.00;99.90
18894;DHT22;9579;49.488;8.226;2023-02-11T23:02:24;9.40;99.90
18894;DHT22;9579;49.488;8.226;2023-02-11T23:05:13;8.90;99.90
18894;DHT22;9579;49.488;8.226;2023-02-11T23:08:00;9.80;99.90
18894;DHT22;9579;49.488;8.226;2023-02-11T23:10:47;9.00;99.90
18894;DHT22;9579;49.488;8.226;2023-02-11T23:13:37;9.00;99.90
18894;DHT22;9579;49.488;8.226;2023-02-11T23:16:26;9.70;99.90
18894;DHT22;9579;49.488;8.226;2023-02-11T23:19:15;9.40;99.90
18894;DHT22;9579;49.488;8.226;2023-02-11T23:22:06;10.00;99.90
18894;DHT22;9579;49.488;8.226;2023-02-11T23:24:54;9.70;99.90
18894;DHT22;9579;49.488;8.226;2023-02-11T23:27:41;8.20;99.90
18894;DHT22;9579;49.488;8.226;2023-02-11T23:30:29;8.20;99.90
18894;DHT22;9579;49.488;8.226;2023-02-11T23:33:17;8.90;99.90
18894;DHT22;9579;49.488;8.226;2023-02-11T23:36:05;9.70;99.90
18894;DHT22;9579;49.488;8.226;2023-02-11T23:38:54;8.90;99.90
18894;DHT22;9579;49.488;8.226;2023-02-11T23:41:43;9.00;99.90
18894;DHT22;9579;49.488;8.226;2023-02-11T23:44:31;8.90;99.90
18894;DHT22;9579;49.488;8.226;2023-02-11T23:47:18;8.90;99.90
18894;DHT22;9579;49.488;8.226;2023-02-11T23:50:08;8.90;99.90
18894;DHT22;9579;49.488;8.226;2023-02-11T23:52:57;8.90;99.90
18894;DHT22;9579;49.488;8.226;2023-02-11T23:55:46;8.20;99.90
18894;DHT22;9579;49.488;8.226;2023-02-11T23:58:34;8.50;99.90
